LIME/BGY METAR and TAF weather

Enter ICAO airport designator
Station Type Date Time Source
LIME METAR 2021/10/22 19:20 UTC NOAA

LIME 221920Z 02004KT 6000 NSC 12/11 Q1018 BECMG 4000 BR


Station Type Date Time Source
LIME Decoded METAR 2021/10/22 19:20 UTC NOAA

Bergamo / Orio Al Serio, Italy (LIME) 45-40N 009-42E 237M
Oct 22, 2021 - 03:20 PM EDT / 2021.10.22 1920 UTC
Wind: from the NNE (020 degrees) at 5 MPH (4 KT):0
Visibility: 3 mile(s):0
Temperature: 53 F (12 C)
Dew Point: 51 F (11 C)
Relative Humidity: 93%
Pressure (altimeter): 30.06 in. Hg (1018 hPa)
ob: LIME 221920Z 02004KT 6000 NSC 12/11 Q1018 BECMG 4000 BR
cycle: 19

Station Type Date Time Source
LIME TAF 2021/10/22 18:21 UTC NOAA

TAF LIME 221700Z 2218/2318 VRB04KT 6000 FEW020
BECMG 2219/2221 3000 BR
BECMG 2300/2302 0800 FG BKN003
BECMG 2306/2308 8000 FEW020

Example: see airport list